Time;durP1;ratioP1;P1;durP2;ratioP2;P2;SDS_P1;SDS_P2;PMS_P1;PMS_P2;Temp;Humidity;BMP_temperature;BMP_pressure;BME280_temperature;BME280_humidity;BME280_pressure;Samples;Min_cycle;Max_cycle;Signal;HPM_P1;HPM_P2
2022/01/03 00:01:20;;;;;;;11.05;1.80;;;;;;;;;;5036641;28;20039;-74
2022/01/03 00:03:46;;;;;;;10.23;2.38;;;;;;;;;;5056501;28;20064;-73
2022/01/03 00:06:12;;;;;;;8.93;1.45;;;;;;;;;;5037072;28;20044;-74
2022/01/03 00:08:41;;;;;;;9.63;1.50;;;;;;;;;;5040337;28;20083;-74
2022/01/03 00:11:06;;;;;;;15.88;1.92;;;;;;;;;;5056450;28;20081;-74
2022/01/03 00:13:32;;;;;;;14.63;2.03;;;;;;;;;;5052897;28;20033;-74
2022/01/03 00:15:57;;;;;;;9.13;1.70;;;;;;;;;;5056187;28;20039;-74
2022/01/03 00:18:23;;;;;;;13.88;1.95;;;;;;;;;;5054161;28;20458;-74
2022/01/03 00:20:58;;;;;;;5.78;1.90;;;;;;;;;;5033911;28;20041;-74
2022/01/03 00:23:29;;;;;;;13.25;1.80;;;;;;;;;;5062480;28;20040;-74
2022/01/03 00:25:59;;;;;;;14.43;1.90;;;;;;;;;;5064940;28;20032;-74
2022/01/03 00:28:31;;;;;;;5.80;1.60;;;;;;;;;;5064738;28;20052;-74
2022/01/03 00:30:57;;;;;;;10.30;1.65;;;;;;;;;;5053463;28;20437;-74
2022/01/03 00:33:24;;;;;;;13.85;1.63;;;;;;;;;;5053691;28;20561;-74
2022/01/03 00:35:58;;;;;;;7.47;1.40;;;;;;;;;;5038076;28;20045;-74
2022/01/03 00:38:25;;;;;;;7.35;1.67;;;;;;;;;;5041534;28;20036;-74
2022/01/03 00:40:52;;;;;;;15.55;2.03;;;;;;;;;;5042334;28;20557;-73
2022/01/03 00:43:18;;;;;;;7.40;1.75;;;;;;;;;;5039171;28;20035;-74
2022/01/03 00:45:43;;;;;;;6.35;2.15;;;;;;;;;;5037224;28;20037;-74
2022/01/03 00:48:10;;;;;;;11.23;1.90;;;;;;;;;;5039970;28;20052;-74
2022/01/03 00:50:37;;;;;;;11.98;1.45;;;;;;;;;;5040009;28;20052;-73
2022/01/03 00:53:03;;;;;;;8.80;1.80;;;;;;;;;;5039178;28;20121;-74
2022/01/03 00:55:28;;;;;;;12.43;1.73;;;;;;;;;;5058755;28;20032;-73
2022/01/03 00:58:06;;;;;;;11.35;1.50;;;;;;;;;;5043949;28;20033;-73
2022/01/03 01:00:36;;;;;;;14.10;2.05;;;;;;;;;;5041272;28;20132;-74
2022/01/03 01:03:09;;;;;;;13.70;1.75;;;;;;;;;;5040366;28;20036;-74
2022/01/03 01:05:35;;;;;;;5.97;1.50;;;;;;;;;;5046160;28;20097;-73
2022/01/03 01:08:01;;;;;;;9.77;1.75;;;;;;;;;;5047448;28;20021;-74
2022/01/03 01:10:29;;;;;;;11.20;1.58;;;;;;;;;;5048051;28;20032;-74
2022/01/03 01:12:56;;;;;;;12.95;1.98;;;;;;;;;;5044591;28;20051;-74
2022/01/03 01:15:22;;;;;;;9.35;1.30;;;;;;;;;;5042004;28;20049;-74
2022/01/03 01:17:48;;;;;;;13.73;2.05;;;;;;;;;;5046758;28;20057;-74
2022/01/03 01:20:15;;;;;;;7.25;1.25;;;;;;;;;;5062742;28;20642;-74
2022/01/03 01:22:45;;;;;;;11.52;1.60;;;;;;;;;;5064626;28;20105;-74
2022/01/03 01:27:50;;;;;;;13.38;2.00;;;;;;;;;;5065095;28;20041;-74
2022/01/03 01:30:20;;;;;;;9.65;1.73;;;;;;;;;;5073696;28;20532;-74
2022/01/03 01:32:51;;;;;;;11.27;2.65;;;;;;;;;;5060205;28;20546;-74
2022/01/03 01:35:19;;;;;;;4.32;1.33;;;;;;;;;;5064112;28;20505;-74
2022/01/03 01:37:48;;;;;;;9.48;1.63;;;;;;;;;;5070428;28;20040;-74
2022/01/03 01:40:14;;;;;;;9.35;1.98;;;;;;;;;;5063432;28;20041;-74
2022/01/03 01:42:45;;;;;;;12.13;2.15;;;;;;;;;;5062624;28;20029;-74
2022/01/03 01:45:11;;;;;;;8.30;1.90;;;;;;;;;;5062306;28;20059;-74
2022/01/03 01:47:40;;;;;;;10.63;2.15;;;;;;;;;;5061714;28;20044;-74
2022/01/03 01:50:08;;;;;;;4.07;1.52;;;;;;;;;;5061630;28;21414;-74
2022/01/03 01:52:36;;;;;;;13.88;2.03;;;;;;;;;;5062785;28;20024;-74
2022/01/03 01:55:08;;;;;;;8.05;2.20;;;;;;;;;;5038311;28;20120;-74
2022/01/03 01:57:48;;;;;;;10.77;2.85;;;;;;;;;;5040019;28;20033;-74
2022/01/03 02:00:15;;;;;;;13.43;2.60;;;;;;;;;;5042904;28;20091;-74
2022/01/03 02:02:43;;;;;;;16.35;2.65;;;;;;;;;;5049543;28;20051;-74
2022/01/03 02:05:18;;;;;;;7.00;2.00;;;;;;;;;;5047773;28;20033;-74
2022/01/03 02:07:54;;;;;;;14.57;2.20;;;;;;;;;;5041027;28;20502;-74
2022/01/03 02:10:27;;;;;;;14.07;2.22;;;;;;;;;;5061396;28;20040;-74
2022/01/03 02:12:53;;;;;;;13.63;2.47;;;;;;;;;;5053060;28;20120;-74
2022/01/03 02:15:19;;;;;;;11.27;2.20;;;;;;;;;;5057074;28;20115;-74
2022/01/03 02:17:46;;;;;;;9.63;2.22;;;;;;;;;;5055804;28;20705;-74
2022/01/03 02:20:21;;;;;;;10.05;2.10;;;;;;;;;;5060744;28;20028;-74
2022/01/03 02:22:48;;;;;;;15.55;2.28;;;;;;;;;;5057259;28;20029;-73
2022/01/03 02:25:15;;;;;;;9.10;2.15;;;;;;;;;;5057836;28;20409;-74
2022/01/03 02:27:42;;;;;;;12.65;2.08;;;;;;;;;;5058244;28;20572;-74
2022/01/03 02:30:12;;;;;;;12.60;2.38;;;;;;;;;;5058292;28;20438;-74
2022/01/03 02:32:37;;;;;;;9.02;2.22;;;;;;;;;;5057095;28;20070;-74
2022/01/03 02:35:04;;;;;;;15.15;2.45;;;;;;;;;;5057231;28;20486;-74
2022/01/03 02:37:30;;;;;;;11.80;2.17;;;;;;;;;;5062718;28;20032;-74
2022/01/03 02:39:56;;;;;;;12.18;2.47;;;;;;;;;;5062761;28;20032;-74
2022/01/03 02:42:24;;;;;;;8.25;2.00;;;;;;;;;;5060484;28;20037;-74
2022/01/03 02:45:07;;;;;;;9.15;2.15;;;;;;;;;;5054990;28;20032;-74
2022/01/03 02:47:34;;;;;;;18.05;2.92;;;;;;;;;;5060107;28;20064;-74
2022/01/03 02:49:59;;;;;;;17.10;3.17;;;;;;;;;;5045476;28;20044;-74
2022/01/03 02:52:25;;;;;;;12.70;3.00;;;;;;;;;;5043864;28;20040;-74
2022/01/03 02:54:51;;;;;;;12.95;3.33;;;;;;;;;;5044221;28;20131;-74
2022/01/03 02:57:22;;;;;;;11.18;2.60;;;;;;;;;;5033668;28;20073;-74
2022/01/03 02:59:55;;;;;;;12.35;2.97;;;;;;;;;;5035801;28;20046;-74
2022/01/03 03:02:22;;;;;;;13.32;2.78;;;;;;;;;;5017685;28;20388;-74
2022/01/03 03:05:08;;;;;;;16.85;2.72;;;;;;;;;;5035441;28;20482;-74
2022/01/03 03:07:33;;;;;;;15.13;2.70;;;;;;;;;;5037867;28;20041;-74
2022/01/03 03:10:00;;;;;;;14.90;2.33;;;;;;;;;;5037822;28;20037;-74
2022/01/03 03:12:26;;;;;;;10.93;2.30;;;;;;;;;;5039975;28;20044;-73
2022/01/03 03:14:51;;;;;;;16.63;2.38;;;;;;;;;;5031962;28;20099;-74
2022/01/03 03:17:18;;;;;;;13.73;2.08;;;;;;;;;;5025704;28;20034;-74
2022/01/03 03:19:56;;;;;;;22.55;3.08;;;;;;;;;;5025267;28;20021;-74
2022/01/03 03:22:23;;;;;;;12.45;1.88;;;;;;;;;;5041830;28;20431;-74
2022/01/03 03:24:49;;;;;;;9.13;1.75;;;;;;;;;;5011940;28;20030;-74
2022/01/03 03:27:15;;;;;;;8.02;1.80;;;;;;;;;;5025655;28;20144;-74
2022/01/03 03:29:46;;;;;;;8.00;1.38;;;;;;;;;;5021587;28;20037;-74
2022/01/03 03:32:11;;;;;;;9.93;2.00;;;;;;;;;;5024258;28;20037;-74
2022/01/03 03:34:36;;;;;;;10.82;2.15;;;;;;;;;;5027475;28;20061;-74
2022/01/03 03:37:02;;;;;;;11.07;2.05;;;;;;;;;;5012570;28;20053;-74
2022/01/03 03:39:27;;;;;;;9.43;2.05;;;;;;;;;;5038473;28;20025;-74
2022/01/03 03:41:53;;;;;;;17.33;2.00;;;;;;;;;;5020177;28;20065;-74
2022/01/03 03:44:18;;;;;;;7.28;1.70;;;;;;;;;;5032260;28;20773;-74
2022/01/03 03:46:43;;;;;;;10.25;1.70;;;;;;;;;;5036155;28;20104;-74
2022/01/03 03:49:09;;;;;;;12.10;2.33;;;;;;;;;;5028361;28;20056;-74
2022/01/03 03:51:38;;;;;;;13.40;1.85;;;;;;;;;;5057343;28;20093;-74
2022/01/03 03:54:04;;;;;;;9.73;1.75;;;;;;;;;;5034365;28;20406;-74
2022/01/03 03:56:29;;;;;;;11.07;2.03;;;;;;;;;;5040094;28;20033;-74
2022/01/03 03:58:55;;;;;;;9.88;2.08;;;;;;;;;;5043367;28;20563;-74
2022/01/03 04:01:20;;;;;;;10.93;2.40;;;;;;;;;;5020778;28;20037;-74
2022/01/03 04:03:45;;;;;;;13.25;2.22;;;;;;;;;;5044240;28;20062;-74
2022/01/03 04:06:11;;;;;;;14.30;2.13;;;;;;;;;;5028679;28;20041;-74
2022/01/03 04:08:36;;;;;;;12.40;2.35;;;;;;;;;;5022346;28;20113;-74
2022/01/03 04:11:01;;;;;;;12.00;2.00;;;;;;;;;;5038466;28;20778;-74
2022/01/03 04:13:27;;;;;;;14.77;2.67;;;;;;;;;;5044744;28;20044;-74
2022/01/03 04:15:52;;;;;;;12.10;2.08;;;;;;;;;;5064365;28;20629;-74
2022/01/03 04:18:17;;;;;;;11.93;2.22;;;;;;;;;;5063345;28;20120;-74
2022/01/03 04:20:43;;;;;;;12.23;2.22;;;;;;;;;;5041118;28;20039;-74
2022/01/03 04:23:08;;;;;;;8.52;1.92;;;;;;;;;;5037005;28;20029;-74
2022/01/03 04:25:33;;;;;;;16.13;2.33;;;;;;;;;;5055447;28;20024;-74
2022/01/03 04:27:59;;;;;;;9.20;1.90;;;;;;;;;;5051996;28;20041;-74
2022/01/03 04:30:24;;;;;;;15.25;2.40;;;;;;;;;;5052074;28;20033;-74
2022/01/03 04:32:49;;;;;;;7.60;1.80;;;;;;;;;;5040555;28;20033;-74
2022/01/03 04:35:15;;;;;;;14.25;2.35;;;;;;;;;;5050550;28;20037;-74
2022/01/03 04:37:40;;;;;;;9.57;2.35;;;;;;;;;;5054375;28;20032;-74
2022/01/03 04:40:06;;;;;;;15.73;2.10;;;;;;;;;;5054105;28;20041;-74
2022/01/03 04:42:31;;;;;;;10.85;2.03;;;;;;;;;;5053599;28;20048;-74
2022/01/03 04:44:57;;;;;;;16.95;2.60;;;;;;;;;;5044911;28;20052;-74
2022/01/03 04:47:22;;;;;;;17.77;4.00;;;;;;;;;;5049117;28;20052;-74
2022/01/03 04:49:47;;;;;;;24.17;3.80;;;;;;;;;;5045677;28;20045;-74
2022/01/03 04:52:14;;;;;;;13.40;4.43;;;;;;;;;;5034738;28;20083;-74
2022/01/03 04:54:39;;;;;;;14.15;3.67;;;;;;;;;;5021330;28;20056;-74
2022/01/03 04:57:05;;;;;;;16.63;3.00;;;;;;;;;;5038319;28;20407;-74
2022/01/03 04:59:30;;;;;;;15.30;2.90;;;;;;;;;;5040947;28;20095;-74
2022/01/03 05:01:55;;;;;;;11.18;2.97;;;;;;;;;;5037696;28;20272;-74
2022/01/03 05:04:20;;;;;;;15.48;4.03;;;;;;;;;;5036687;28;20108;-74
2022/01/03 05:06:46;;;;;;;19.95;2.55;;;;;;;;;;5041811;28;20025;-74
2022/01/03 05:09:11;;;;;;;13.35;2.03;;;;;;;;;;5037340;28;20107;-74
2022/01/03 05:11:36;;;;;;;11.82;2.13;;;;;;;;;;5039229;28;20030;-74
2022/01/03 05:14:02;;;;;;;13.23;1.88;;;;;;;;;;5043701;28;20033;-74
2022/01/03 05:16:27;;;;;;;13.18;1.75;;;;;;;;;;5049591;28;20030;-74
2022/01/03 05:18:52;;;;;;;21.67;3.70;;;;;;;;;;5044568;28;20503;-74
2022/01/03 05:21:19;;;;;;;17.75;2.67;;;;;;;;;;5041685;28;20048;-74
2022/01/03 05:23:44;;;;;;;14.63;2.70;;;;;;;;;;5042246;28;20174;-74
2022/01/03 05:26:10;;;;;;;14.20;3.05;;;;;;;;;;5042341;28;20119;-74
2022/01/03 05:28:35;;;;;;;12.85;3.38;;;;;;;;;;5029760;28;20145;-74
2022/01/03 05:31:01;;;;;;;15.13;3.00;;;;;;;;;;5040749;28;20041;-74
2022/01/03 05:33:26;;;;;;;18.90;4.47;;;;;;;;;;5044538;28;20194;-74
2022/01/03 05:35:52;;;;;;;15.48;4.13;;;;;;;;;;5042270;28;20456;-74
2022/01/03 05:38:17;;;;;;;23.45;4.25;;;;;;;;;;5047567;28;20473;-74
2022/01/03 05:40:42;;;;;;;15.43;3.88;;;;;;;;;;5049061;28;20052;-74
2022/01/03 05:43:10;;;;;;;15.15;2.85;;;;;;;;;;5040679;28;20045;-74
2022/01/03 05:45:35;;;;;;;17.90;3.20;;;;;;;;;;5043424;28;20045;-73
2022/01/03 05:48:01;;;;;;;17.63;3.05;;;;;;;;;;5042734;28;20049;-74
2022/01/03 05:50:26;;;;;;;9.57;2.42;;;;;;;;;;5054881;28;20037;-74
2022/01/03 05:52:51;;;;;;;17.67;3.03;;;;;;;;;;5059978;28;20119;-74
2022/01/03 05:55:19;;;;;;;15.30;2.45;;;;;;;;;;5059062;28;20036;-74
2022/01/03 05:57:44;;;;;;;15.65;2.28;;;;;;;;;;5062252;28;20111;-74
2022/01/03 06:00:14;;;;;;;13.60;2.40;;;;;;;;;;5059330;28;20151;-74
2022/01/03 06:02:42;;;;;;;16.35;2.55;;;;;;;;;;5061944;28;20063;-74
2022/01/03 06:05:10;;;;;;;11.45;2.70;;;;;;;;;;5044492;28;20127;-74
2022/01/03 06:07:35;;;;;;;18.15;2.15;;;;;;;;;;5033953;28;20090;-74
2022/01/03 06:10:02;;;;;;;12.75;2.70;;;;;;;;;;5015143;28;20045;-74
2022/01/03 06:12:28;;;;;;;8.23;2.03;;;;;;;;;;5035172;28;20399;-74
2022/01/03 06:14:55;;;;;;;11.45;2.20;;;;;;;;;;5035144;28;20048;-74
2022/01/03 06:17:20;;;;;;;15.75;2.35;;;;;;;;;;5033955;28;20056;-74
2022/01/03 06:19:47;;;;;;;12.77;2.22;;;;;;;;;;5033611;28;20076;-74
2022/01/03 06:22:13;;;;;;;19.80;2.30;;;;;;;;;;5042738;28;20071;-74
2022/01/03 06:24:39;;;;;;;16.35;2.28;;;;;;;;;;5040942;28;20060;-74
2022/01/03 06:27:05;;;;;;;10.13;1.52;;;;;;;;;;5017951;28;20036;-74
2022/01/03 06:29:31;;;;;;;12.90;2.20;;;;;;;;;;5037860;28;20426;-73
2022/01/03 06:31:57;;;;;;;9.88;2.55;;;;;;;;;;5016458;28;20542;-74
2022/01/03 06:34:22;;;;;;;12.98;2.00;;;;;;;;;;5042743;28;20132;-74
2022/01/03 06:36:48;;;;;;;12.65;2.72;;;;;;;;;;5012399;28;20521;-74
2022/01/03 06:39:13;;;;;;;11.05;2.22;;;;;;;;;;5034510;28;20033;-73
2022/01/03 06:41:40;;;;;;;11.80;2.45;;;;;;;;;;5035843;28;20104;-74
2022/01/03 06:44:06;;;;;;;8.10;1.85;;;;;;;;;;5035789;28;20499;-74
2022/01/03 06:46:32;;;;;;;10.23;2.28;;;;;;;;;;5018579;28;20037;-73
2022/01/03 06:49:00;;;;;;;16.92;2.58;;;;;;;;;;5036244;28;20052;-74
2022/01/03 06:51:27;;;;;;;20.17;3.75;;;;;;;;;;5042778;28;20080;-74
2022/01/03 06:53:52;;;;;;;17.48;2.35;;;;;;;;;;5043947;28;20043;-74
2022/01/03 06:56:17;;;;;;;9.35;1.85;;;;;;;;;;5056389;28;20043;-73
2022/01/03 06:58:43;;;;;;;9.73;1.85;;;;;;;;;;5057952;28;20810;-74
2022/01/03 07:01:09;;;;;;;13.65;2.75;;;;;;;;;;5061267;28;20036;-74
2022/01/03 07:03:34;;;;;;;19.00;2.50;;;;;;;;;;5057988;28;20072;-73
2022/01/03 07:06:00;;;;;;;15.13;2.60;;;;;;;;;;5055502;28;20123;-78
2022/01/03 07:08:25;;;;;;;12.05;2.30;;;;;;;;;;5059404;28;20086;-79
2022/01/03 07:10:51;;;;;;;11.60;2.55;;;;;;;;;;5056653;28;20028;-80
2022/01/03 07:13:17;;;;;;;10.70;2.33;;;;;;;;;;5063284;28;20170;-82
2022/01/03 07:21:11;;;;;;;;;;;;;;;;;;5058228;28;20098;-75
2022/01/03 07:23:36;;;;;;;9.93;2.13;;;;;;;;;;5057656;28;19924;-75
2022/01/03 07:26:02;;;;;;;13.23;2.22;;;;;;;;;;5057526;28;20047;-75
2022/01/03 07:28:27;;;;;;;9.93;2.08;;;;;;;;;;5057942;28;20036;-76
2022/01/03 07:30:53;;;;;;;10.57;1.92;;;;;;;;;;5055959;28;20052;-76
2022/01/03 07:33:18;;;;;;;13.93;2.40;;;;;;;;;;5060493;28;20033;-79
2022/01/03 07:35:43;;;;;;;10.60;2.35;;;;;;;;;;5059632;28;20120;-79
2022/01/03 07:38:09;;;;;;;12.55;2.20;;;;;;;;;;5059855;28;20059;-79
2022/01/03 07:40:34;;;;;;;13.65;2.47;;;;;;;;;;5058286;28;20482;-76
2022/01/03 07:43:00;;;;;;;12.50;1.98;;;;;;;;;;5031643;28;20045;-77
2022/01/03 07:45:26;;;;;;;6.90;2.00;;;;;;;;;;5035980;28;20084;-74
2022/01/03 07:47:51;;;;;;;17.20;2.55;;;;;;;;;;5037074;28;20045;-80
2022/01/03 07:50:17;;;;;;;20.88;2.90;;;;;;;;;;5039754;28;20041;-81
2022/01/03 07:52:43;;;;;;;9.05;2.08;;;;;;;;;;5036242;28;20056;-81
2022/01/03 07:55:10;;;;;;;12.82;2.53;;;;;;;;;;5051043;28;20071;-73
2022/01/03 07:57:35;;;;;;;9.43;2.05;;;;;;;;;;5052806;28;20039;-74
2022/01/03 08:00:02;;;;;;;9.73;2.17;;;;;;;;;;5049355;28;20041;-68
2022/01/03 08:02:28;;;;;;;7.72;1.63;;;;;;;;;;5059737;28;20670;-78
2022/01/03 08:04:55;;;;;;;13.13;1.88;;;;;;;;;;5046820;28;20056;-75
2022/01/03 08:07:20;;;;;;;14.45;2.20;;;;;;;;;;5032758;28;20098;-78
2022/01/03 08:09:45;;;;;;;13.43;2.50;;;;;;;;;;5032306;28;20064;-81
2022/01/03 08:12:11;;;;;;;12.15;1.67;;;;;;;;;;5032146;28;20040;-76
2022/01/03 08:14:36;;;;;;;9.25;2.25;;;;;;;;;;5034538;28;20540;-74
2022/01/03 08:17:02;;;;;;;11.10;1.52;;;;;;;;;;5051311;28;20032;-73
2022/01/03 08:19:27;;;;;;;15.57;2.08;;;;;;;;;;5053358;28;20044;-70
2022/01/03 08:21:53;;;;;;;9.82;1.80;;;;;;;;;;5055159;28;20043;-75
2022/01/03 08:24:18;;;;;;;11.82;2.00;;;;;;;;;;5056109;28;20037;-75
2022/01/03 08:26:44;;;;;;;10.15;1.90;;;;;;;;;;5060134;28;20032;-76
2022/01/03 08:29:09;;;;;;;12.55;2.45;;;;;;;;;;5052280;28;20120;-73
2022/01/03 08:31:37;;;;;;;8.85;1.98;;;;;;;;;;5056636;28;20021;-75
2022/01/03 08:34:03;;;;;;;8.45;2.05;;;;;;;;;;5058848;28;20589;-74
2022/01/03 08:36:28;;;;;;;13.18;2.50;;;;;;;;;;5055907;28;20124;-76
2022/01/03 08:38:54;;;;;;;11.52;2.53;;;;;;;;;;5063062;28;20135;-78
2022/01/03 08:41:19;;;;;;;6.43;2.17;;;;;;;;;;5062316;28;20139;-73
2022/01/03 08:43:44;;;;;;;11.43;2.40;;;;;;;;;;5064321;28;20020;-74
2022/01/03 08:46:10;;;;;;;7.72;2.33;;;;;;;;;;5056596;28;20044;-79
2022/01/03 08:48:35;;;;;;;8.95;2.63;;;;;;;;;;5057943;28;20123;-76
2022/01/03 08:51:00;;;;;;;11.35;3.33;;;;;;;;;;5061054;28;20033;-77
2022/01/03 08:53:27;;;;;;;8.40;3.25;;;;;;;;;;5059957;28;20050;-75
2022/01/03 08:55:56;;;;;;;14.55;3.45;;;;;;;;;;5052264;28;20498;-75
2022/01/03 08:58:23;;;;;;;16.08;3.17;;;;;;;;;;5036099;28;20049;-76
2022/01/03 09:00:49;;;;;;;15.18;3.03;;;;;;;;;;5051246;28;20170;-75
2022/01/03 09:03:15;;;;;;;14.20;3.30;;;;;;;;;;5053052;28;20059;-75
2022/01/03 09:05:40;;;;;;;13.45;3.53;;;;;;;;;;5055545;28;20141;-75
2022/01/03 09:08:06;;;;;;;16.55;2.70;;;;;;;;;;5055935;28;20112;-77
2022/01/03 09:10:31;;;;;;;15.43;3.42;;;;;;;;;;5060973;28;20400;-79
2022/01/03 09:12:57;;;;;;;22.52;3.67;;;;;;;;;;5056681;28;20098;-78
2022/01/03 09:15:23;;;;;;;14.05;2.95;;;;;;;;;;5052856;28;20047;-78
2022/01/03 09:17:48;;;;;;;17.50;3.20;;;;;;;;;;5059992;28;20036;-76
2022/01/03 09:20:15;;;;;;;15.93;3.28;;;;;;;;;;5049548;28;20040;-76
2022/01/03 09:22:45;;;;;;;18.80;3.10;;;;;;;;;;5064870;28;20571;-74
2022/01/03 09:30:31;;;;;;;14.35;3.00;;;;;;;;;;5057476;28;20140;-76
2022/01/03 09:32:56;;;;;;;13.10;3.67;;;;;;;;;;5052189;28;20127;-75
2022/01/03 09:35:22;;;;;;;18.88;3.55;;;;;;;;;;5054048;28;20473;-74
2022/01/03 09:37:48;;;;;;;15.82;2.85;;;;;;;;;;5056820;28;20033;-74
2022/01/03 09:40:17;;;;;;;19.85;3.33;;;;;;;;;;5056515;28;20025;-79
2022/01/03 09:42:44;;;;;;;17.88;3.22;;;;;;;;;;5061215;28;20073;-74
2022/01/03 09:45:13;;;;;;;16.75;3.38;;;;;;;;;;5055794;28;20124;-75
2022/01/03 09:47:42;;;;;;;13.70;3.22;;;;;;;;;;5060804;28;20422;-72
2022/01/03 09:50:08;;;;;;;22.20;3.97;;;;;;;;;;5038011;28;20492;-73
2022/01/03 09:52:36;;;;;;;14.68;3.30;;;;;;;;;;5023254;28;20033;-77
2022/01/03 09:55:03;;;;;;;13.63;2.90;;;;;;;;;;5031581;28;20041;-75
2022/01/03 09:57:30;;;;;;;13.65;3.50;;;;;;;;;;5039931;28;20579;-76
2022/01/03 09:59:58;;;;;;;12.18;2.72;;;;;;;;;;5034532;28;20505;-75
2022/01/03 10:02:23;;;;;;;12.20;3.28;;;;;;;;;;5033307;28;20056;-74
2022/01/03 10:04:48;;;;;;;13.70;2.72;;;;;;;;;;5035799;28;20041;-72
2022/01/03 10:07:14;;;;;;;16.60;3.55;;;;;;;;;;5037472;28;20807;-70
2022/01/03 10:09:42;;;;;;;16.65;2.78;;;;;;;;;;5035040;28;20037;-71
2022/01/03 10:12:13;;;;;;;13.85;2.60;;;;;;;;;;5032939;28;20130;-72
2022/01/03 10:14:39;;;;;;;14.63;2.38;;;;;;;;;;5035872;28;20036;-74
2022/01/03 10:17:05;;;;;;;11.13;2.80;;;;;;;;;;5034217;28;20034;-73
2022/01/03 10:19:48;;;;;;;12.20;2.40;;;;;;;;;;5039117;28;20025;-69
2022/01/03 10:22:21;;;;;;;12.68;2.63;;;;;;;;;;5008654;28;20120;-72
2022/01/03 10:24:46;;;;;;;14.52;3.08;;;;;;;;;;5025131;28;20396;-72
2022/01/03 10:27:11;;;;;;;13.07;2.05;;;;;;;;;;5009166;28;20064;-71
2022/01/03 10:29:37;;;;;;;19.13;3.00;;;;;;;;;;5034722;28;20040;-76
2022/01/03 10:32:05;;;;;;;17.98;3.08;;;;;;;;;;5035222;28;20031;-73
2022/01/03 10:34:32;;;;;;;19.60;3.35;;;;;;;;;;5010528;28;20395;-71
2022/01/03 10:36:59;;;;;;;15.15;2.72;;;;;;;;;;5011366;28;20041;-71
2022/01/03 10:39:27;;;;;;;11.57;2.33;;;;;;;;;;5006854;28;20033;-76
2022/01/03 10:42:18;;;;;;;12.10;2.33;;;;;;;;;;5026374;28;20049;-73
2022/01/03 10:44:45;;;;;;;20.25;2.90;;;;;;;;;;5038096;28;20039;-82
2022/01/03 10:47:14;;;;;;;22.70;3.75;;;;;;;;;;5031286;28;20079;-78
2022/01/03 10:49:41;;;;;;;21.38;3.63;;;;;;;;;;5026656;28;20053;-78
2022/01/03 10:52:16;;;;;;;11.27;2.35;;;;;;;;;;5010950;28;20088;-77
2022/01/03 10:54:43;;;;;;;18.88;3.38;;;;;;;;;;5035945;28;20383;-79
2022/01/03 10:57:08;;;;;;;12.82;2.80;;;;;;;;;;5055399;28;20032;-75
2022/01/03 10:59:36;;;;;;;14.63;2.60;;;;;;;;;;5046650;28;20041;-77
2022/01/03 11:02:05;;;;;;;13.98;3.05;;;;;;;;;;5021972;28;20761;-75
2022/01/03 11:04:44;;;;;;;13.88;2.78;;;;;;;;;;5040237;28;20094;-78
2022/01/03 11:13:13;;;;;;;11.40;2.28;;;;;;;;;;5011496;28;20099;-79
2022/01/03 11:15:40;;;;;;;22.42;2.45;;;;;;;;;;4994349;28;20037;-71
2022/01/03 11:18:12;;;;;;;14.32;2.85;;;;;;;;;;5031108;28;20087;-71
2022/01/03 11:20:37;;;;;;;18.58;2.83;;;;;;;;;;4996423;28;20331;-74
2022/01/03 11:23:02;;;;;;;18.58;3.08;;;;;;;;;;5013699;28;20026;-80
2022/01/03 11:25:30;;;;;;;16.35;2.72;;;;;;;;;;5016860;28;20739;-78
2022/01/03 11:27:55;;;;;;;9.13;2.13;;;;;;;;;;5020076;28;20482;-82
2022/01/03 11:30:21;;;;;;;12.00;2.70;;;;;;;;;;5018681;28;20041;-83
2022/01/03 11:32:49;;;;;;;19.05;2.47;;;;;;;;;;5019661;28;20111;-82
2022/01/03 11:35:15;;;;;;;16.98;2.72;;;;;;;;;;5032624;28;20055;-83
2022/01/03 11:37:44;;;;;;;11.55;1.60;;;;;;;;;;5005609;28;20033;-81
2022/01/03 11:40:11;;;;;;;15.63;3.10;;;;;;;;;;5028652;28;20080;-83
2022/01/03 11:42:37;;;;;;;16.10;2.53;;;;;;;;;;5030152;28;20627;-82
2022/01/03 11:45:03;;;;;;;17.30;2.45;;;;;;;;;;5025626;28;20531;-81
2022/01/03 11:47:31;;;;;;;12.02;2.85;;;;;;;;;;5029370;28;20641;-82
2022/01/03 11:49:57;;;;;;;16.95;2.75;;;;;;;;;;5028791;28;20048;-83
2022/01/03 11:52:23;;;;;;;18.83;2.38;;;;;;;;;;5051942;28;20035;-82
2022/01/03 11:54:51;;;;;;;18.98;3.33;;;;;;;;;;5054975;28;20036;-82
2022/01/03 11:57:45;;;;;;;19.27;3.55;;;;;;;;;;5037755;28;20518;-87
2022/01/03 12:05:49;;;;;;;17.95;2.90;;;;;;;;;;5039307;28;20054;-81
2022/01/03 12:08:21;;;;;;;15.38;2.47;;;;;;;;;;5058106;28;20032;-85
2022/01/03 12:10:47;;;;;;;17.90;2.50;;;;;;;;;;5051693;28;20035;-81
2022/01/03 12:13:12;;;;;;;14.88;2.35;;;;;;;;;;5051992;28;20040;-81
2022/01/03 12:15:41;;;;;;;17.83;2.83;;;;;;;;;;5043961;28;20044;-81
2022/01/03 12:18:29;;;;;;;13.88;2.40;;;;;;;;;;5051296;28;20149;-81
2022/01/03 12:20:54;;;;;;;11.00;2.40;;;;;;;;;;5054998;28;20469;-81
2022/01/03 12:23:47;;;;;;;14.18;2.45;;;;;;;;;;5053805;28;20544;-80
2022/01/03 12:26:17;;;;;;;16.35;2.72;;;;;;;;;;5045260;28;20052;-80
2022/01/03 12:29:08;;;;;;;22.98;3.08;;;;;;;;;;5053092;28;20035;-80
2022/01/03 12:32:11;;;;;;;18.15;2.70;;;;;;;;;;5053057;28;20182;-80
2022/01/03 12:34:38;;;;;;;16.73;3.03;;;;;;;;;;5053021;28;21001;-79
2022/01/03 12:37:16;;;;;;;22.70;4.72;;;;;;;;;;5059871;28;20040;-80
2022/01/03 12:40:06;;;;;;;13.45;2.90;;;;;;;;;;5051361;28;20043;-79
2022/01/03 12:42:53;;;;;;;18.90;2.72;;;;;;;;;;5049751;28;20078;-79
2022/01/03 12:45:39;;;;;;;16.73;3.38;;;;;;;;;;5035257;28;20171;-79
2022/01/03 12:48:10;;;;;;;14.88;2.75;;;;;;;;;;5032917;28;20056;-79
2022/01/03 12:50:44;;;;;;;11.40;2.28;;;;;;;;;;5030583;28;20050;-80
2022/01/03 12:53:30;;;;;;;18.40;3.25;;;;;;;;;;5033424;28;20033;-80
2022/01/03 12:56:11;;;;;;;18.40;2.40;;;;;;;;;;5007199;28;20051;-80
2022/01/03 12:58:38;;;;;;;18.42;2.35;;;;;;;;;;5010812;28;20076;-81
2022/01/03 13:01:14;;;;;;;13.57;2.00;;;;;;;;;;5002649;28;20044;-80
2022/01/03 13:03:39;;;;;;;17.08;2.17;;;;;;;;;;5023392;28;20049;-80
2022/01/03 13:06:14;;;;;;;22.50;2.92;;;;;;;;;;5025959;28;20091;-80
2022/01/03 13:08:56;;;;;;;19.30;2.22;;;;;;;;;;5005554;28;20430;-80
2022/01/03 13:11:24;;;;;;;14.68;2.47;;;;;;;;;;5022164;28;20118;-80
2022/01/03 13:14:03;;;;;;;16.60;2.80;;;;;;;;;;5015645;28;20039;-81
2022/01/03 13:16:40;;;;;;;14.55;3.85;;;;;;;;;;5042946;28;20049;-82
2022/01/03 13:19:08;;;;;;;14.70;3.08;;;;;;;;;;5034192;28;20048;-83
2022/01/03 13:21:43;;;;;;;6.35;1.67;;;;;;;;;;5040497;28;20040;-85
2022/01/03 13:24:19;;;;;;;9.63;1.80;;;;;;;;;;5039014;28;20841;-85
2022/01/03 13:27:18;;;;;;;4.63;1.30;;;;;;;;;;5036533;28;20049;-84
2022/01/03 13:29:46;;;;;;;4.93;1.00;;;;;;;;;;4985830;28;20076;-84
2022/01/03 13:32:26;;;;;;;5.07;1.17;;;;;;;;;;5030176;28;20034;-83
2022/01/03 13:34:53;;;;;;;4.00;1.38;;;;;;;;;;5039112;28;20044;-85
2022/01/03 13:37:22;;;;;;;1.65;0.80;;;;;;;;;;5032905;28;20585;-85
2022/01/03 13:39:50;;;;;;;3.88;1.42;;;;;;;;;;5026817;28;20109;-80
2022/01/03 13:42:28;;;;;;;5.72;1.00;;;;;;;;;;5027129;28;20049;-79
2022/01/03 13:50:12;;;;;;;4.68;1.02;;;;;;;;;;5047394;28;20075;-81
2022/01/03 13:52:42;;;;;;;2.03;0.63;;;;;;;;;;5048912;28;20021;-81
2022/01/03 13:55:18;;;;;;;2.22;0.70;;;;;;;;;;5045331;28;20538;-80
2022/01/03 13:57:45;;;;;;;2.35;1.13;;;;;;;;;;5051233;28;20041;-79
2022/01/03 14:00:16;;;;;;;2.58;0.82;;;;;;;;;;5041228;28;20131;-80
2022/01/03 14:02:41;;;;;;;4.75;1.05;;;;;;;;;;5017907;28;20572;-85
2022/01/03 14:05:08;;;;;;;5.72;1.40;;;;;;;;;;5035225;28;20029;-83
2022/01/03 14:07:35;;;;;;;6.00;1.20;;;;;;;;;;5035998;28;20032;-82
2022/01/03 14:10:01;;;;;;;1.48;0.80;;;;;;;;;;5030800;28;20496;-83
2022/01/03 14:12:30;;;;;;;1.83;0.60;;;;;;;;;;5034421;28;20040;-83
2022/01/03 14:15:02;;;;;;;1.35;0.70;;;;;;;;;;5043838;28;20040;-83
2022/01/03 14:17:28;;;;;;;0.90;0.70;;;;;;;;;;5046624;28;20040;-83
2022/01/03 14:20:12;;;;;;;5.40;0.98;;;;;;;;;;5033499;28;20099;-83
2022/01/03 14:22:38;;;;;;;6.30;0.80;;;;;;;;;;5011404;28;20051;-82
2022/01/03 14:25:06;;;;;;;2.05;0.70;;;;;;;;;;5029785;28;20041;-83
2022/01/03 14:28:02;;;;;;;2.58;0.60;;;;;;;;;;5034203;28;20056;-83
2022/01/03 14:30:35;;;;;;;1.65;0.80;;;;;;;;;;5004919;28;20041;-84
2022/01/03 14:33:04;;;;;;;3.65;0.95;;;;;;;;;;5009273;28;20860;-83
2022/01/03 14:35:41;;;;;;;1.23;0.73;;;;;;;;;;5025442;28;20040;-83
2022/01/03 14:38:12;;;;;;;3.58;0.80;;;;;;;;;;5016273;28;20028;-84
2022/01/03 14:40:42;;;;;;;5.43;0.90;;;;;;;;;;5029451;28;20505;-85
2022/01/03 14:43:08;;;;;;;4.88;1.00;;;;;;;;;;5021362;28;20048;-84
2022/01/03 14:45:34;;;;;;;5.72;1.25;;;;;;;;;;5039742;28;20529;-86
2022/01/03 14:48:02;;;;;;;7.38;2.25;;;;;;;;;;5045129;28;20585;-86
2022/01/03 14:50:28;;;;;;;3.97;1.00;;;;;;;;;;5018796;28;20540;-85
2022/01/03 14:52:57;;;;;;;4.95;1.20;;;;;;;;;;5028183;28;20029;-86
2022/01/03 14:55:35;;;;;;;4.65;1.92;;;;;;;;;;5030966;28;20336;-86
2022/01/03 14:58:02;;;;;;;2.70;1.05;;;;;;;;;;5031527;28;20038;-84
2022/01/03 15:00:28;;;;;;;7.53;1.92;;;;;;;;;;5029358;28;20694;-84
2022/01/03 15:02:55;;;;;;;5.85;1.60;;;;;;;;;;5043243;28;20044;-85
2022/01/03 15:05:20;;;;;;;9.15;1.58;;;;;;;;;;5054838;28;20124;-83
2022/01/03 15:07:46;;;;;;;4.35;1.92;;;;;;;;;;5055077;28;20111;-86
2022/01/03 15:10:14;;;;;;;2.90;1.10;;;;;;;;;;5045006;28;20473;-85